Time;durP1;ratioP1;P1;durP2;ratioP2;P2;SDS_P1;SDS_P2;PMS_P1;PMS_P2;Temp;Humidity;BMP_temperature;BMP_pressure;BME280_temperature;BME280_humidity;BME280_pressure;Samples;Min_cycle;Max_cycle;Signal;HPM_P1;HPM_P2
2022/12/13 06:24:45;;;;;;;21.50;9.95;;;-4.00;99.90;;;;;;4845886;29;20068;-80
2022/12/13 06:27:12;;;;;;;20.15;9.88;;;-4.00;99.90;;;;;;4851961;29;20045;-80
2022/12/13 06:29:38;;;;;;;19.85;10.13;;;-4.00;99.90;;;;;;4853468;29;20561;-81
2022/12/13 06:32:05;;;;;;;17.75;9.50;;;-4.00;99.90;;;;;;4853912;29;20061;-82
2022/12/13 06:34:34;;;;;;;21.30;11.40;;;-4.00;99.90;;;;;;4836513;29;20530;-81
2022/12/13 06:37:04;;;;;;;25.25;12.23;;;-3.90;99.90;;;;;;4828777;29;20055;-82
2022/12/13 06:39:31;;;;;;;25.48;11.57;;;-3.90;99.90;;;;;;4838548;29;20079;-81
2022/12/13 06:42:00;;;;;;;19.63;10.88;;;-3.90;99.90;;;;;;4840402;29;20054;-80
2022/12/13 06:44:27;;;;;;;27.42;13.45;;;-3.90;99.90;;;;;;4838113;29;20050;-80
2022/12/13 06:46:54;;;;;;;24.77;12.52;;;-3.80;99.90;;;;;;4837746;29;20148;-81
2022/12/13 06:49:38;;;;;;;26.27;13.90;;;-3.80;99.90;;;;;;4841124;29;20050;-82
2022/12/13 06:52:04;;;;;;;24.38;12.70;;;-3.80;99.90;;;;;;4838969;29;20083;-82
2022/12/13 06:54:32;;;;;;;21.20;12.10;;;-3.80;99.90;;;;;;4823627;29;20066;-81
2022/12/13 06:56:58;;;;;;;25.83;12.82;;;-3.80;99.90;;;;;;4828239;29;20628;-81
2022/12/13 06:59:25;;;;;;;28.73;14.23;;;-3.80;99.90;;;;;;4829517;29;20058;-82
2022/12/13 07:01:52;;;;;;;31.85;14.65;;;-3.70;99.90;;;;;;4831304;29;20065;-82
2022/12/13 07:04:19;;;;;;;29.17;13.63;;;-3.70;99.90;;;;;;4834381;29;20141;-82
2022/12/13 07:06:56;;;;;;;42.72;18.38;;;-3.70;99.90;;;;;;4835551;29;20061;-81
2022/12/13 07:09:31;;;;;;;37.97;17.48;;;-3.70;99.90;;;;;;4825967;29;20197;-82
2022/12/13 07:11:58;;;;;;;37.50;16.92;;;-3.70;99.90;;;;;;4840940;29;20515;-81
2022/12/13 07:14:25;;;;;;;43.78;19.17;;;-3.80;99.90;;;;;;4842538;29;20050;-81
2022/12/13 07:16:52;;;;;;;38.25;18.45;;;-3.80;99.90;;;;;;4832536;29;20058;-81
2022/12/13 07:19:28;;;;;;;34.78;16.40;;;-3.90;99.90;;;;;;4828961;29;20050;-81
2022/12/13 07:22:07;;;;;;;40.63;19.20;;;-3.90;99.90;;;;;;4828298;29;20046;-80
2022/12/13 07:24:35;;;;;;;42.10;19.30;;;-3.90;99.90;;;;;;4832000;29;20058;-81
2022/12/13 07:27:02;;;;;;;35.78;16.70;;;-4.00;99.90;;;;;;4825932;29;20055;-81
2022/12/13 07:29:29;;;;;;;48.28;18.70;;;-4.20;99.90;;;;;;4838056;29;20524;-81
2022/12/13 07:31:56;;;;;;;33.72;15.70;;;-4.20;99.90;;;;;;4839276;29;20089;-81
2022/12/13 07:34:28;;;;;;;36.38;17.55;;;-4.20;99.90;;;;;;4855026;29;20098;-79
2022/12/13 07:36:55;;;;;;;39.80;17.30;;;-4.20;99.90;;;;;;4838414;29;20093;-82
2022/12/13 07:39:25;;;;;;;34.13;17.02;;;-4.20;99.90;;;;;;4823617;29;20493;-81
2022/12/13 07:41:54;;;;;;;36.15;16.48;;;-4.20;99.90;;;;;;4827968;29;20074;-81
2022/12/13 07:44:21;;;;;;;40.85;17.13;;;-4.20;99.90;;;;;;4824283;29;20385;-81
2022/12/13 07:46:48;;;;;;;42.75;17.00;;;-4.20;99.90;;;;;;4835452;29;20467;-81
2022/12/13 07:49:15;;;;;;;37.78;17.70;;;-4.20;99.90;;;;;;4835672;29;20107;-82
2022/12/13 07:51:42;;;;;;;37.95;18.08;;;-4.10;99.90;;;;;;4837050;29;20075;-81
2022/12/13 07:54:09;;;;;;;39.17;19.10;;;-4.00;99.90;;;;;;4837755;29;20081;-81
2022/12/13 07:56:36;;;;;;;38.80;18.80;;;-3.90;99.90;;;;;;4838275;29;20065;-82
2022/12/13 07:59:03;;;;;;;38.75;17.58;;;-3.80;99.90;;;;;;4827376;29;20064;-81
2022/12/13 08:01:33;;;;;;;35.10;15.82;;;-3.70;99.90;;;;;;4831479;29;20644;-81
2022/12/13 08:04:02;;;;;;;35.53;16.38;;;-3.70;99.90;;;;;;4829869;29;20050;-82
2022/12/13 08:06:29;;;;;;;40.40;17.50;;;-3.70;99.90;;;;;;4829140;29;20085;-80
2022/12/13 08:08:56;;;;;;;38.83;16.38;;;-3.60;99.90;;;;;;4841384;29;20068;-80
2022/12/13 08:11:23;;;;;;;35.03;17.17;;;-3.50;99.90;;;;;;4828886;29;20054;-81
2022/12/13 08:13:52;;;;;;;38.80;17.13;;;-3.50;99.90;;;;;;4824981;29;20150;-81
2022/12/13 08:16:19;;;;;;;33.92;16.50;;;-3.40;99.90;;;;;;4822315;29;20069;-81
2022/12/13 08:18:54;;;;;;;36.97;15.70;;;-3.40;99.90;;;;;;4830096;29;20058;-82
2022/12/13 08:21:40;;;;;;;36.92;16.45;;;-3.40;99.90;;;;;;4821112;29;20057;-81
2022/12/13 08:24:28;;;;;;;38.70;16.75;;;-3.30;99.90;;;;;;4826928;29;20047;-81
2022/12/13 08:26:59;;;;;;;31.83;16.10;;;-3.30;99.90;;;;;;4819227;29;20042;-81
2022/12/13 08:29:31;;;;;;;36.05;16.50;;;-3.20;99.90;;;;;;4829192;29;20508;-81
2022/12/13 08:32:10;;;;;;;29.98;14.88;;;-3.20;99.90;;;;;;4830535;29;20049;-80
2022/12/13 08:34:37;;;;;;;32.58;15.95;;;-3.20;99.90;;;;;;4831645;29;20070;-82
2022/12/13 08:37:04;;;;;;;34.15;17.92;;;-3.10;99.90;;;;;;4828150;29;20062;-81
2022/12/13 08:39:33;;;;;;;35.60;16.02;;;-3.10;99.90;;;;;;4823269;29;20050;-82
2022/12/13 08:42:07;;;;;;;33.30;17.75;;;-3.10;99.90;;;;;;4824610;29;20042;-81
2022/12/13 08:44:49;;;;;;;35.17;16.52;;;-3.20;99.90;;;;;;4829053;29;20146;-82
2022/12/13 08:47:18;;;;;;;35.55;18.13;;;-3.20;99.90;;;;;;4823208;29;20050;-82
2022/12/13 08:49:54;;;;;;;34.42;17.45;;;-3.20;99.90;;;;;;4829575;29;20054;-83
2022/12/13 08:52:28;;;;;;;32.90;16.70;;;-3.20;99.90;;;;;;4825781;29;20092;-81
2022/12/13 08:54:55;;;;;;;37.00;18.48;;;-3.20;99.90;;;;;;4833225;29;20054;-81
2022/12/13 08:57:23;;;;;;;34.88;16.48;;;-3.20;99.90;;;;;;4836719;29;20119;-81
2022/12/13 08:59:50;;;;;;;35.88;17.02;;;-3.10;99.90;;;;;;4840098;29;20058;-82
2022/12/13 09:02:17;;;;;;;33.83;16.08;;;-3.10;99.90;;;;;;4838276;29;20054;-81
2022/12/13 09:04:45;;;;;;;41.63;19.10;;;-3.10;99.90;;;;;;4825506;29;20736;-81
2022/12/13 09:07:12;;;;;;;36.72;18.05;;;-3.10;99.90;;;;;;4827224;29;20410;-81
2022/12/13 09:09:40;;;;;;;38.35;17.83;;;-3.10;99.90;;;;;;4827634;29;20087;-81
2022/12/13 09:12:07;;;;;;;33.25;17.33;;;-3.00;99.90;;;;;;4832322;29;20050;-82
2022/12/13 09:14:53;;;;;;;33.03;17.00;;;-2.90;99.90;;;;;;4834802;29;20112;-81
2022/12/13 09:17:29;;;;;;;31.17;15.75;;;-2.80;99.90;;;;;;4833549;29;20100;-79
2022/12/13 09:20:04;;;;;;;36.20;18.73;;;-2.90;99.90;;;;;;4839125;29;20093;-81
2022/12/13 09:22:51;;;;;;;34.65;17.15;;;-2.90;99.90;;;;;;4839935;29;20484;-79
2022/12/13 09:25:27;;;;;;;35.80;18.35;;;-2.90;99.90;;;;;;4826273;29;20173;-80
2022/12/13 09:28:05;;;;;;;34.85;17.30;;;-2.80;99.90;;;;;;4828230;29;20057;-81
2022/12/13 09:30:31;;;;;;;32.05;16.90;;;-2.70;99.90;;;;;;4831688;29;20405;-81
2022/12/13 09:32:58;;;;;;;43.75;18.55;;;-2.60;99.90;;;;;;4833604;29;20058;-80
2022/12/13 09:35:44;;;;;;;34.08;17.05;;;-2.60;99.90;;;;;;4836464;29;20058;-81
2022/12/13 09:38:10;;;;;;;32.70;16.90;;;-2.60;99.90;;;;;;4835942;29;20077;-80
2022/12/13 09:40:39;;;;;;;33.55;17.48;;;-2.50;99.90;;;;;;4841682;29;20054;-79
2022/12/13 09:43:09;;;;;;;33.67;17.17;;;-2.60;99.90;;;;;;4837159;29;20141;-79
2022/12/13 09:45:42;;;;;;;38.17;18.52;;;-2.50;99.90;;;;;;4836171;29;20065;-81
2022/12/13 09:48:16;;;;;;;38.65;18.83;;;-2.50;99.90;;;;;;4830041;29;20054;-82
2022/12/13 09:50:49;;;;;;;36.55;18.00;;;-2.50;99.90;;;;;;4831145;29;20116;-81
2022/12/13 09:53:36;;;;;;;32.78;16.40;;;-2.60;99.90;;;;;;4834064;29;20061;-81
2022/12/13 09:56:03;;;;;;;34.20;17.83;;;-2.40;99.90;;;;;;4833577;29;20568;-81
2022/12/13 09:58:36;;;;;;;33.30;16.90;;;-2.40;99.90;;;;;;4838617;29;20054;-81
2022/12/13 10:01:04;;;;;;;32.28;17.48;;;-2.40;99.90;;;;;;4839915;29;20090;-80
2022/12/13 10:03:31;;;;;;;36.20;17.38;;;-2.40;99.90;;;;;;4841155;29;20102;-81
2022/12/13 10:06:15;;;;;;;35.90;17.55;;;-2.40;99.90;;;;;;4843723;29;20050;-80
2022/12/13 10:08:54;;;;;;;33.05;17.08;;;-2.30;99.90;;;;;;4840174;29;20050;-81
2022/12/13 10:11:25;;;;;;;34.30;17.05;;;-2.20;99.90;;;;;;4832070;29;20054;-81
2022/12/13 10:14:09;;;;;;;35.05;17.90;;;-2.10;99.90;;;;;;4832229;29;20058;-82
2022/12/13 10:16:36;;;;;;;33.25;17.65;;;-2.00;99.90;;;;;;4837241;29;20069;-80
2022/12/13 10:19:27;;;;;;;32.58;17.95;;;-1.90;99.90;;;;;;4837955;29;20074;-81
2022/12/13 10:21:57;;;;;;;37.17;18.60;;;-1.80;99.90;;;;;;4840548;29;20111;-82
2022/12/13 10:24:46;;;;;;;33.67;18.23;;;-1.60;99.90;;;;;;4844113;29;20054;-80
2022/12/13 10:27:15;;;;;;;33.42;17.17;;;-1.70;99.90;;;;;;4843599;29;20053;-79
2022/12/13 10:30:02;;;;;;;36.90;18.20;;;-1.60;99.90;;;;;;4832643;29;20062;-81
2022/12/13 10:32:33;;;;;;;30.23;15.98;;;-1.60;99.90;;;;;;4834325;29;20081;-80
2022/12/13 10:35:35;;;;;;;34.67;17.33;;;-1.50;99.90;;;;;;4836759;29;20060;-79
2022/12/13 10:38:26;;;;;;;33.53;15.98;;;-1.60;99.90;;;;;;4836113;29;20061;-82
2022/12/13 10:40:57;;;;;;;30.33;15.93;;;-1.60;99.90;;;;;;4832572;29;20466;-81
2022/12/13 10:43:29;;;;;;;37.30;18.33;;;-1.60;99.90;;;;;;4838846;29;20050;-81
2022/12/13 10:45:58;;;;;;;32.45;16.88;;;-1.50;99.90;;;;;;4844272;29;20049;-81
2022/12/13 10:48:48;;;;;;;34.50;17.50;;;-1.40;99.90;;;;;;4841525;29;20046;-81
2022/12/13 10:51:18;;;;;;;29.48;15.80;;;-1.40;99.90;;;;;;4831519;29;20054;-82
2022/12/13 10:53:45;;;;;;;29.02;16.05;;;-1.30;99.90;;;;;;4828377;29;20058;-82
2022/12/13 10:56:17;;;;;;;29.63;16.35;;;-1.20;99.90;;;;;;4831012;29;20050;-81
2022/12/13 10:59:23;;;;;;;31.85;16.95;;;-1.20;99.90;;;;;;4832600;29;20058;-83
2022/12/13 11:01:50;;;;;;;43.10;19.60;;;-1.10;99.90;;;;;;4834981;29;20136;-82
2022/12/13 11:04:28;;;;;;;34.47;17.83;;;-1.20;99.90;;;;;;4838509;29;20054;-80
2022/12/13 11:06:59;;;;;;;39.05;18.42;;;-1.30;99.90;;;;;;4828230;29;20058;-80
2022/12/13 11:09:33;;;;;;;32.33;16.90;;;-1.20;99.90;;;;;;4844016;29;20053;-79
2022/12/13 11:12:16;;;;;;;33.38;16.15;;;-1.50;99.90;;;;;;4830158;29;20050;-81
2022/12/13 11:14:53;;;;;;;39.40;18.85;;;-1.90;99.90;;;;;;4829550;29;20057;-81
2022/12/13 11:17:22;;;;;;;32.17;17.63;;;-2.30;99.90;;;;;;4836377;29;20061;-83
2022/12/13 11:19:52;;;;;;;34.17;16.97;;;-2.30;99.90;;;;;;4838601;29;20050;-80
2022/12/13 11:22:23;;;;;;;31.63;17.42;;;-2.30;99.90;;;;;;4839268;29;20058;-83
2022/12/13 11:24:55;;;;;;;35.00;18.33;;;-2.30;99.90;;;;;;4849760;29;20054;-82
2022/12/13 11:27:48;;;;;;;31.55;17.23;;;-2.30;99.90;;;;;;4841046;29;20141;-82
2022/12/13 11:30:15;;;;;;;34.47;17.35;;;-2.30;99.90;;;;;;4842050;29;20050;-83
2022/12/13 11:33:02;;;;;;;32.95;17.92;;;-2.20;99.90;;;;;;4835963;29;20087;-82
2022/12/13 11:36:05;;;;;;;34.63;17.45;;;-2.20;99.90;;;;;;4827614;29;20061;-82
2022/12/13 11:39:00;;;;;;;37.00;17.35;;;-2.10;99.90;;;;;;4828407;29;20070;-82
2022/12/13 11:41:41;;;;;;;35.97;17.92;;;-2.10;99.90;;;;;;4831647;29;20158;-80
2022/12/13 11:44:14;;;;;;;37.47;19.42;;;-2.10;99.90;;;;;;4834183;29;20084;-80
2022/12/13 11:46:48;;;;;;;32.63;18.10;;;-2.10;99.90;;;;;;4831305;29;20049;-81
2022/12/13 11:49:36;;;;;;;37.20;18.17;;;-2.10;99.90;;;;;;4839370;29;20061;-80
2022/12/13 11:52:16;;;;;;;31.65;16.75;;;-2.10;99.90;;;;;;4835162;29;20062;-80
2022/12/13 11:54:59;;;;;;;37.40;18.95;;;-2.10;99.90;;;;;;4829214;29;20058;-80
2022/12/13 11:57:45;;;;;;;31.00;16.20;;;-2.00;99.90;;;;;;4827085;29;20065;-80
2022/12/13 12:00:34;;;;;;;30.23;16.60;;;-2.00;99.90;;;;;;4829456;29;20145;-81
2022/12/13 12:03:19;;;;;;;29.83;15.48;;;-2.10;99.90;;;;;;4823488;29;20050;-81
2022/12/13 12:05:54;;;;;;;34.30;18.67;;;-2.10;99.90;;;;;;4838519;29;20050;-80
2022/12/13 12:08:45;;;;;;;35.28;17.63;;;-2.10;99.90;;;;;;4836168;29;20086;-80
2022/12/13 12:11:34;;;;;;;38.20;18.42;;;-2.00;99.90;;;;;;4843900;29;20061;-79
2022/12/13 12:14:29;;;;;;;34.83;17.10;;;-1.90;99.90;;;;;;4844466;29;20065;-81
2022/12/13 12:16:57;;;;;;;31.08;16.08;;;-1.90;99.90;;;;;;4826204;29;20056;-81
2022/12/13 12:19:31;;;;;;;34.22;17.17;;;-1.80;99.90;;;;;;4829516;29;20057;-81
2022/12/13 12:22:10;;;;;;;34.78;17.20;;;-1.70;99.90;;;;;;4828123;29;20050;-81
2022/12/13 12:25:04;;;;;;;36.92;17.35;;;-1.70;99.90;;;;;;4831583;29;20494;-81
2022/12/13 12:27:57;;;;;;;29.23;15.98;;;-1.60;99.90;;;;;;4835294;29;20065;-81
2022/12/13 12:30:50;;;;;;;34.92;16.60;;;-1.60;99.90;;;;;;4824035;29;20083;-80
2022/12/13 12:33:19;;;;;;;34.28;16.77;;;-1.50;99.90;;;;;;4839138;29;20069;-81
2022/12/13 12:36:00;;;;;;;30.40;15.52;;;-1.40;99.90;;;;;;4837573;29;20504;-80
2022/12/13 12:38:49;;;;;;;30.73;15.40;;;-1.40;99.90;;;;;;4827423;29;20054;-81
2022/12/13 12:41:31;;;;;;;38.25;17.10;;;-1.30;99.90;;;;;;4828468;29;20064;-80
2022/12/13 12:44:01;;;;;;;33.42;17.00;;;-1.30;99.90;;;;;;4825170;29;20053;-81
2022/12/13 12:47:01;;;;;;;30.70;15.40;;;-1.20;99.90;;;;;;4830539;29;20057;-80
2022/12/13 12:49:57;;;;;;;;;;;-1.30;99.90;;;;;;4826799;29;20054;-81
2022/12/13 12:52:48;;;;;;;30.73;16.27;;;-1.20;99.90;;;;;;4835199;29;19998;-80
2022/12/13 12:55:34;;;;;;;31.35;16.15;;;-1.20;99.90;;;;;;4839531;29;20057;-81
2022/12/13 12:58:26;;;;;;;28.55;15.27;;;-1.20;99.90;;;;;;4836177;29;20054;-81
2022/12/13 13:01:17;;;;;;;34.40;18.10;;;-1.30;99.90;;;;;;4826341;29;20049;-80
2022/12/13 13:03:49;;;;;;;30.92;16.88;;;-1.40;99.90;;;;;;4830729;29;20058;-81
2022/12/13 13:06:27;;;;;;;36.20;17.50;;;-1.40;99.90;;;;;;4832160;29;20473;-80
2022/12/13 13:08:59;;;;;;;36.17;16.83;;;-1.50;99.90;;;;;;4834632;29;20057;-81
2022/12/13 13:11:29;;;;;;;35.38;18.00;;;-1.50;99.90;;;;;;4832921;29;20065;-82
2022/12/13 13:14:25;;;;;;;37.92;18.17;;;-1.50;99.90;;;;;;4828656;29;20523;-81
2022/12/13 13:16:54;;;;;;;32.60;17.27;;;-1.50;99.90;;;;;;4838963;29;20046;-81
2022/12/13 13:19:30;;;;;;;33.30;16.40;;;-1.50;99.90;;;;;;4830515;29;20137;-81
2022/12/13 13:21:58;;;;;;;30.38;16.38;;;-1.50;99.90;;;;;;4816422;29;20050;-82
2022/12/13 13:24:29;;;;;;;31.10;16.30;;;-1.50;99.90;;;;;;4822384;29;20103;-80
2022/12/13 13:26:59;;;;;;;32.30;16.52;;;-1.50;99.90;;;;;;4817700;29;20057;-82
2022/12/13 13:29:31;;;;;;;32.90;16.67;;;-1.60;99.90;;;;;;4829534;29;20056;-81
2022/12/13 13:32:05;;;;;;;30.85;16.95;;;-1.60;99.90;;;;;;4823981;29;21923;-82
2022/12/13 13:34:38;;;;;;;31.77;15.82;;;-1.60;99.90;;;;;;4825040;29;20065;-81
2022/12/13 13:37:26;;;;;;;33.22;16.77;;;-1.60;99.90;;;;;;4826755;29;20054;-81
2022/12/13 13:39:58;;;;;;;33.58;17.40;;;-1.70;99.90;;;;;;4837085;29;20555;-81
2022/12/13 13:42:28;;;;;;;34.75;17.00;;;-1.70;99.90;;;;;;4821953;29;20062;-81
2022/12/13 13:45:19;;;;;;;34.78;17.83;;;-1.70;99.90;;;;;;4821248;29;20141;-82
2022/12/13 13:48:21;;;;;;;32.60;15.88;;;-1.60;99.90;;;;;;4826034;29;20137;-81
2022/12/13 13:51:19;;;;;;;32.10;16.20;;;-1.60;99.90;;;;;;4815673;29;20415;-81
2022/12/13 13:54:12;;;;;;;29.30;16.05;;;-1.50;99.90;;;;;;4829465;29;20075;-83
2022/12/13 13:57:01;;;;;;;31.55;15.82;;;-1.50;99.90;;;;;;4826878;29;20062;-81
2022/12/13 14:00:02;;;;;;;32.13;16.20;;;-1.50;99.90;;;;;;4819370;29;20050;-81
2022/12/13 14:02:46;;;;;;;30.90;17.13;;;-1.40;99.90;;;;;;4832672;29;20059;-81
2022/12/13 14:05:51;;;;;;;47.67;22.63;;;-1.40;99.90;;;;;;4818067;29;20058;-81
2022/12/13 14:08:53;;;;;;;45.28;22.88;;;-1.40;99.90;;;;;;4822118;29;20058;-79
2022/12/13 14:11:41;;;;;;;34.13;18.23;;;-1.30;99.90;;;;;;4817931;29;20111;-79
2022/12/13 14:14:14;;;;;;;30.80;16.70;;;-1.30;99.90;;;;;;4830220;29;20042;-83
2022/12/13 14:16:48;;;;;;;37.45;18.27;;;-1.30;99.90;;;;;;4861922;29;20106;-83
2022/12/13 14:19:15;;;;;;;40.50;21.42;;;-1.40;99.90;;;;;;4852584;29;20054;-81
2022/12/13 14:25:06;;;;;;;31.83;16.73;;;-1.40;99.90;;;;;;5450810;23;20096;-82
2022/12/13 14:27:49;;;;;;;33.83;16.25;;;-0.90;99.90;;;;;;4864395;29;20080;-81
2022/12/13 14:30:20;;;;;;;44.78;20.48;;;-1.50;99.90;;;;;;4870204;29;20051;-84
2022/12/13 14:33:18;;;;;;;35.40;18.42;;;-1.40;99.90;;;;;;4851724;29;20077;-82
2022/12/13 14:39:35;;;;;;;35.35;17.80;;;-1.50;99.90;;;;;;4825432;29;20620;-83
2022/12/13 14:42:21;;;;;;;41.78;19.42;;;-1.60;99.90;;;;;;4829689;29;20050;-82
2022/12/13 14:44:48;;;;;;;41.95;20.83;;;-1.70;99.90;;;;;;4836891;29;20136;-81
2022/12/13 14:47:16;;;;;;;40.92;20.20;;;-1.70;99.90;;;;;;4834917;29;20053;-81
2022/12/13 14:49:49;;;;;;;42.25;21.27;;;-1.80;99.90;;;;;;4840301;29;20110;-82
2022/12/13 14:52:26;;;;;;;38.17;20.20;;;-1.80;99.90;;;;;;4833274;29;20057;-81
2022/12/13 14:54:59;;;;;;;35.75;17.38;;;-1.80;99.90;;;;;;4845725;29;20050;-82
2022/12/13 14:57:31;;;;;;;38.20;18.33;;;-1.80;99.90;;;;;;4840800;29;20396;-82
2022/12/13 15:00:18;;;;;;;38.00;18.80;;;-1.80;99.90;;;;;;4836932;29;20458;-82
2022/12/13 15:02:54;;;;;;;39.63;18.55;;;-1.90;99.90;;;;;;4833721;29;20058;-82
2022/12/13 15:05:33;;;;;;;40.13;18.85;;;-1.90;99.90;;;;;;4839547;29;20072;-81
2022/12/13 15:08:01;;;;;;;35.50;18.30;;;-2.00;99.90;;;;;;4830492;29;20058;-81
2022/12/13 15:10:44;;;;;;;40.25;19.50;;;-1.90;99.90;;;;;;4832331;29;20070;-81
2022/12/13 15:13:26;;;;;;;34.15;17.77;;;-1.90;99.90;;;;;;4841893;29;20086;-81
2022/12/13 15:15:59;;;;;;;40.35;19.40;;;-2.00;99.90;;;;;;4841704;29;20095;-81
2022/12/13 15:18:37;;;;;;;40.17;20.10;;;-2.00;99.90;;;;;;4838497;29;20411;-81
2022/12/13 15:21:21;;;;;;;38.92;18.60;;;-2.00;99.90;;;;;;4837056;29;20049;-81
2022/12/13 15:23:51;;;;;;;38.75;19.92;;;-1.90;99.90;;;;;;4831792;29;20054;-82
2022/12/13 15:26:22;;;;;;;35.45;18.73;;;-1.90;99.90;;;;;;4829059;29;20062;-82
2022/12/13 15:28:58;;;;;;;35.97;19.20;;;-2.00;99.90;;;;;;4836043;29;20492;-81
2022/12/13 15:31:36;;;;;;;43.10;20.20;;;-2.00;99.90;;;;;;4840975;29;20062;-82
2022/12/13 15:34:34;;;;;;;42.38;18.67;;;-2.00;99.90;;;;;;4830455;29;20062;-81
2022/12/13 15:37:05;;;;;;;41.30;20.10;;;-1.90;99.90;;;;;;4822710;29;20111;-80
2022/12/13 15:39:38;;;;;;;36.92;18.88;;;-2.00;99.90;;;;;;4836122;29;20145;-82
2022/12/13 15:42:22;;;;;;;35.50;19.30;;;-2.00;99.90;;;;;;4831116;29;20058;-81
2022/12/13 15:44:55;;;;;;;34.80;18.95;;;-2.00;99.90;;;;;;4835769;29;20046;-81
2022/12/13 15:47:23;;;;;;;40.83;19.65;;;-1.90;99.90;;;;;;4830684;29;20106;-82
2022/12/13 15:49:58;;;;;;;35.67;20.05;;;-1.90;99.90;;;;;;4834222;29;20050;-81
2022/12/13 15:52:39;;;;;;;42.45;22.17;;;-1.80;99.90;;;;;;4835980;29;20133;-81
2022/12/13 15:55:06;;;;;;;42.65;20.63;;;-1.80;99.90;;;;;;4831487;29;20050;-81
2022/12/13 15:57:54;;;;;;;36.28;19.55;;;-1.80;99.90;;;;;;4830393;29;20137;-80
2022/12/13 16:00:30;;;;;;;48.60;24.27;;;-1.80;99.90;;;;;;4829680;29;20058;-81
2022/12/13 16:03:17;;;;;;;40.55;22.25;;;-1.80;99.90;;;;;;4843712;29;20050;-81
2022/12/13 16:05:50;;;;;;;39.75;20.98;;;-1.80;99.90;;;;;;4841772;29;20053;-81
2022/12/13 16:08:29;;;;;;;40.17;19.75;;;-1.80;99.90;;;;;;4845419;29;20066;-80
2022/12/13 16:10:57;;;;;;;39.67;20.35;;;-1.80;99.90;;;;;;4839907;29;20134;-80
2022/12/13 16:13:25;;;;;;;38.85;19.63;;;-1.80;99.90;;;;;;4842550;29;20057;-80
2022/12/13 16:16:01;;;;;;;38.50;20.85;;;-1.70;99.90;;;;;;4842618;29;20062;-78
2022/12/13 16:18:51;;;;;;;40.55;21.45;;;-1.70;99.90;;;;;;4837119;29;20050;-79
2022/12/13 16:21:18;;;;;;;38.35;18.85;;;-1.60;99.90;;;;;;4839686;29;20054;-80
2022/12/13 16:23:44;;;;;;;41.28;19.75;;;-1.60;99.90;;;;;;4834707;29;20122;-82
2022/12/13 16:26:20;;;;;;;35.40;18.85;;;-1.50;99.90;;;;;;4832509;29;20050;-79
2022/12/13 16:28:46;;;;;;;41.17;21.70;;;-1.50;99.90;;;;;;4829929;29;20106;-81
2022/12/13 16:31:15;;;;;;;39.10;20.25;;;-1.40;99.90;;;;;;4830861;29;20065;-81
2022/12/13 16:33:43;;;;;;;44.78;23.50;;;-1.40;99.90;;;;;;4830510;29;20061;-80
2022/12/13 16:36:10;;;;;;;45.15;23.60;;;-1.40;99.90;;;;;;4838287;29;20050;-80
2022/12/13 16:38:38;;;;;;;37.88;21.73;;;-1.30;99.90;;;;;;4839885;29;20058;-80
2022/12/13 16:41:06;;;;;;;38.65;19.98;;;-1.30;99.90;;;;;;4834009;29;20137;-80
2022/12/13 16:44:05;;;;;;;40.50;20.67;;;-1.20;99.90;;;;;;4834123;29;20055;-79
2022/12/13 16:46:32;;;;;;;36.85;20.08;;;-1.20;99.90;;;;;;4826625;29;20125;-81
2022/12/13 16:49:28;;;;;;;32.30;18.33;;;-1.20;99.90;;;;;;4835686;29;20046;-80
2022/12/13 16:51:56;;;;;;;33.97;18.50;;;-1.20;99.90;;;;;;4828600;29;20056;-80
2022/12/13 16:54:23;;;;;;;37.60;19.10;;;-1.30;99.90;;;;;;4834755;29;20058;-80
2022/12/13 16:56:52;;;;;;;35.50;17.95;;;-1.30;99.90;;;;;;4842087;29;20056;-80
2022/12/13 16:59:21;;;;;;;31.85;18.00;;;-1.30;99.90;;;;;;4839881;29;20077;-80
2022/12/13 17:01:51;;;;;;;38.97;18.15;;;-1.30;99.90;;;;;;4835067;29;20141;-80
2022/12/13 17:04:25;;;;;;;37.25;18.85;;;-1.40;99.90;;;;;;4836715;29;20065;-81
2022/12/13 17:06:53;;;;;;;31.75;18.83;;;-1.50;99.90;;;;;;4831879;29;20049;-80
2022/12/13 17:09:21;;;;;;;38.05;19.23;;;-1.60;99.90;;;;;;4834773;29;20050;-81
2022/12/13 17:11:48;;;;;;;37.83;19.42;;;-1.60;99.90;;;;;;4830209;29;20054;-81
2022/12/13 17:14:14;;;;;;;44.72;19.90;;;-1.60;99.90;;;;;;4831964;29;20500;-80
2022/12/13 17:16:41;;;;;;;35.05;19.50;;;-1.70;99.90;;;;;;4842869;29;20591;-81
2022/12/13 17:19:09;;;;;;;38.03;19.00;;;-1.80;99.90;;;;;;4840283;29;20049;-80
2022/12/13 17:21:36;;;;;;;37.50;18.95;;;-1.80;99.90;;;;;;4836844;29;20137;-81
2022/12/13 17:24:03;;;;;;;39.22;20.67;;;-1.80;99.90;;;;;;4836213;29;20054;-80
2022/12/13 17:26:30;;;;;;;37.85;19.95;;;-1.90;99.90;;;;;;4830486;29;20516;-81
2022/12/13 17:28:56;;;;;;;43.60;21.95;;;-1.90;99.90;;;;;;4840248;29;20129;-80
2022/12/13 17:31:24;;;;;;;42.05;21.13;;;-1.90;99.90;;;;;;4835021;29;20054;-80
2022/12/13 17:33:57;;;;;;;40.13;20.52;;;-2.00;99.90;;;;;;4840222;29;20056;-81
2022/12/13 17:36:25;;;;;;;43.38;21.65;;;-2.00;99.90;;;;;;4842868;29;20060;-80
2022/12/13 17:38:52;;;;;;;43.67;21.40;;;-2.00;99.90;;;;;;4839411;29;20420;-80
2022/12/13 17:41:19;;;;;;;47.30;22.60;;;-2.00;99.90;;;;;;4837919;29;20133;-81
2022/12/13 17:43:45;;;;;;;39.15;21.02;;;-2.00;99.90;;;;;;4836646;29;20129;-81
2022/12/13 17:46:15;;;;;;;37.85;20.25;;;-2.00;99.90;;;;;;4838524;29;20050;-80
2022/12/13 17:48:44;;;;;;;40.58;20.35;;;-2.00;99.90;;;;;;4836229;29;20050;-80
2022/12/13 17:51:12;;;;;;;40.03;19.98;;;-2.00;99.90;;;;;;4836415;29;20083;-79
2022/12/13 17:53:41;;;;;;;42.25;22.38;;;-2.00;99.90;;;;;;4835650;29;20062;-81
2022/12/13 17:56:10;;;;;;;39.47;21.48;;;-2.00;99.90;;;;;;4830401;29;20060;-80
2022/12/13 17:58:37;;;;;;;;;;;-2.00;99.90;;;;;;4836840;29;20074;-81
2022/12/13 18:01:22;;;;;;;43.72;21.95;;;-2.00;99.90;;;;;;4838904;29;19986;-80
2022/12/13 18:03:52;;;;;;;43.95;22.35;;;-1.90;99.90;;;;;;4846296;29;20080;-80
2022/12/13 18:06:18;;;;;;;45.65;22.90;;;-1.90;99.90;;;;;;4840824;29;20141;-80
2022/12/13 18:08:45;;;;;;;41.28;22.42;;;-1.80;99.90;;;;;;4838381;29;20059;-80
2022/12/13 18:11:14;;;;;;;44.60;21.48;;;-1.70;99.90;;;;;;4834408;29;20054;-81
2022/12/13 18:14:02;;;;;;;40.08;20.23;;;-1.60;99.90;;;;;;4839229;29;20054;-81
2022/12/13 18:16:29;;;;;;;41.00;20.02;;;-1.60;99.90;;;;;;4831152;29;20073;-80
2022/12/13 18:19:05;;;;;;;41.65;20.92;;;-1.50;99.90;;;;;;4834690;29;20091;-80
2022/12/13 18:21:32;;;;;;;41.30;21.33;;;-1.50;99.90;;;;;;4840507;29;20054;-80
2022/12/13 18:23:59;;;;;;;40.03;21.05;;;-1.40;99.90;;;;;;4836921;29;20144;-80
2022/12/13 18:26:26;;;;;;;44.78;22.95;;;-1.30;99.90;;;;;;4835114;29;20393;-80
2022/12/13 18:28:52;;;;;;;41.63;21.85;;;-1.30;99.90;;;;;;4836081;29;20050;-80
2022/12/13 18:31:24;;;;;;;44.83;22.60;;;-1.20;99.90;;;;;;4839490;29;20144;-82
2022/12/13 18:33:52;;;;;;;38.97;21.55;;;-1.20;99.90;;;;;;4833762;29;20121;-80
2022/12/13 18:36:21;;;;;;;39.10;19.92;;;-1.20;99.90;;;;;;4835039;29;20061;-81
2022/12/13 18:38:48;;;;;;;40.53;20.52;;;-1.10;99.90;;;;;;4828123;29;20150;-81
2022/12/13 18:41:22;;;;;;;39.05;21.40;;;-1.10;99.90;;;;;;4836168;29;20078;-81
2022/12/13 18:44:05;;;;;;;33.38;19.50;;;-1.10;99.90;;;;;;4843749;29;20508;-81
2022/12/13 18:46:36;;;;;;;41.10;20.25;;;-1.10;99.90;;;;;;4834087;29;20054;-81
2022/12/13 18:49:05;;;;;;;47.22;21.70;;;-1.10;99.90;;;;;;4839683;29;20064;-80
2022/12/13 18:51:33;;;;;;;44.90;22.35;;;-1.10;99.90;;;;;;4835057;29;20099;-81
2022/12/13 18:53:59;;;;;;;40.83;22.63;;;-1.00;99.90;;;;;;4832300;29;20129;-81
2022/12/13 18:56:26;;;;;;;35.28;20.33;;;-1.00;99.90;;;;;;4837169;29;20149;-81
2022/12/13 18:58:53;;;;;;;39.45;19.88;;;-1.00;99.90;;;;;;4830947;29;20058;-81
2022/12/13 19:01:21;;;;;;;37.85;18.65;;;-1.00;99.90;;;;;;4831645;29;20157;-81
2022/12/13 19:03:49;;;;;;;37.38;19.73;;;-1.00;99.90;;;;;;4842326;29;20516;-80
2022/12/13 19:06:27;;;;;;;38.47;19.08;;;-1.00;99.90;;;;;;4836436;29;20050;-82
2022/12/13 19:08:55;;;;;;;40.28;20.67;;;-0.90;99.90;;;;;;4834323;29;20655;-82
2022/12/13 19:11:24;;;;;;;38.55;19.98;;;-1.00;99.90;;;;;;4835505;29;20469;-82
2022/12/13 19:13:51;;;;;;;37.17;20.27;;;-1.00;99.90;;;;;;4834584;29;20054;-82
2022/12/13 19:16:21;;;;;;;40.00;21.75;;;-1.00;99.90;;;;;;4835087;29;20455;-80
2022/12/13 19:18:48;;;;;;;37.92;21.67;;;-0.90;99.90;;;;;;4838111;29;20056;-80
2022/12/13 19:21:17;;;;;;;39.50;21.13;;;-0.90;99.90;;;;;;4833275;29;20150;-80
2022/12/13 19:23:45;;;;;;;46.28;22.55;;;-0.90;99.90;;;;;;4841293;29;20136;-80
2022/12/13 19:26:21;;;;;;;46.58;22.58;;;-0.90;99.90;;;;;;4837368;29;20061;-80
2022/12/13 19:28:47;;;;;;;48.78;22.33;;;-0.90;99.90;;;;;;4839235;29;20480;-80
2022/12/13 19:31:14;;;;;;;40.30;22.90;;;-0.90;99.90;;;;;;4836436;29;20401;-82
2022/12/13 19:33:42;;;;;;;77.47;39.80;;;-0.90;99.90;;;;;;4837770;29;20054;-80
2022/12/13 19:36:10;;;;;;;48.88;23.58;;;-0.90;99.90;;;;;;4837198;29;20054;-81